KOGA/OGA METAR and TAF weather

Enter ICAO airport designator
Station Type Date Time Source
KOGA METAR 2020/01/18 15:35 UTC NOAA

KOGA 181535Z AUTO 31014G19KT 10SM CLR M03/M12 A3029 RMK AO2 T10271120


Station Type Date Time Source
KOGA Decoded METAR 2020/01/18 15:35 UTC NOAA

Ogallala, Searle Field Airport, NE, United States (KOGA) 41-07-11N 101-46-08W
Jan 18, 2020 - 10:35 AM EST / 2020.01.18 1535 UTC
Wind: from the NW (310 degrees) at 16 MPH (14 KT) gusting to 22 MPH (19 KT):0
Visibility: 10 mile(s):0
Sky conditions: clear
Temperature: 27.1 F (-2.7 C)
Windchill: 15 F (-9 C):1
Dew Point: 10.4 F (-12.0 C)
Relative Humidity: 48%
Pressure (altimeter): 30.29 in. Hg (1025 hPa)
ob: KOGA 181535Z AUTO 31014G19KT 10SM CLR M03/M12 A3029 RMK AO2 T10271120
cycle: 15

Station Type Date Time Source
KOGA TAF UTC NOAA

Error!

Example: see airport list